Little's Farm

CA-0442 · 安大略, 加拿大

罗盘
风向 的 风向 060°
风: 9 kt, 3 beaufort

添加一条跑道以查看侧风和逆风信息。

添置 跑道
0 ft 5.000 10.000 15.000 20.000
Cloud Cloud Cloud Cloud Cloud Cloud
BKN 12.000
Cloud Cloud Cloud Cloud Cloud Cloud Cloud Cloud
OVC 15.000
METAR CYTZ 090900Z AUTO 06009KT 4SM BR BKN120 OVC150 02/01 A3012 RMK SLP205

METAR Little's Farm - CA-0442

Little's Farm是,加拿大中的小机场。 该领域的国际民航组织标志是CA-0442.

这份报告是针对2023年2月9日 04:00, 当地时间在比利·畢曉普多倫多市機場进行的。

机场观察

风向为060°,速度为9 kt。

可见度为4 mi。

有碎云在12.000 ft的高度 和 乌云密布在15.000 ft的高度。 破损或更高的上限为12.000 ft。

当前天气为薄雾。 温度为2 °C,阵风为-4 °C。 露点为1 °C,相对湿度为93%。 海平面上的气压为30,12 inHg (QNH)。

白天

今天,太阳从07:26升起,在17:40降落。 这适用于Little's Farm,世界夏令时可能有所不同。 当地时间与世界标准时间之间的时差为-5 小时。 当前,没有夏令时有效。

公司介绍

我们没有关于这个机场的公司信息。

体会

到Vliegles.nl去找飞行课程,跳伞和其他飞行体验。 浏览页面,了解Little's Farm附近所有可用的活动。 你也可以使用搜索功能来寻找你所在地附近的特定飞行课程、跳伞或其他飞行体验。

乌云

12.000 ft BKN 碎云
15.000 ft OVC 乌云密布

温度 & 天气

天气 薄雾
温度 2 °C
露点 1 °C
相对湿度 93%
风寒 -4 °C
Kp-index 1 (0-9)

评论

SLP205海平面压力为30,14 inHg (30,14 inHg)

白天

日出
07:24 (2:42)
中午
12:31
日落
17:39

小工具

你想在你的网站上有一个关于Little's Farm的当前航空天气(METAR)的小部件吗?

显示HTML代码

我们和第三方通过cookies跟踪您在我们网站上的互联网行为。如果你继续,我们认为你同意我们的饼干政策